sensor_id;sensor_type;location;lat;lon;timestamp;pressure;altitude;pressure_sealevel;temperature;humidity
39773;BME280;25451;51.960;6.250;2024-01-15T00:00:09;100074.38;;;3.28;82.83
39773;BME280;25451;51.960;6.250;2024-01-15T00:02:35;100075.47;;;3.27;82.93
39773;BME280;25451;51.960;6.250;2024-01-15T00:05:00;100072.72;;;3.27;82.88
39773;BME280;25451;51.960;6.250;2024-01-15T00:07:25;100067.69;;;3.24;82.67
39773;BME280;25451;51.960;6.250;2024-01-15T00:09:50;100064.34;;;3.22;82.97
39773;BME280;25451;51.960;6.250;2024-01-15T00:12:16;100071.69;;;3.22;82.93
39773;BME280;25451;51.960;6.250;2024-01-15T00:14:41;100059.75;;;3.16;83.04
39773;BME280;25451;51.960;6.250;2024-01-15T00:17:07;100065.22;;;3.16;82.80
39773;BME280;25451;51.960;6.250;2024-01-15T00:19:32;100063.56;;;3.15;82.86
39773;BME280;25451;51.960;6.250;2024-01-15T00:21:58;100054.31;;;3.10;83.05
39773;BME280;25451;51.960;6.250;2024-01-15T00:24:24;100057.06;;;3.10;82.96
39773;BME280;25451;51.960;6.250;2024-01-15T00:26:49;100053.94;;;3.06;82.88
39773;BME280;25451;51.960;6.250;2024-01-15T00:29:14;100042.84;;;3.01;82.92
39773;BME280;25451;51.960;6.250;2024-01-15T00:31:40;100044.72;;;3.01;82.83
39773;BME280;25451;51.960;6.250;2024-01-15T00:34:05;100045.38;;;2.96;83.06
39773;BME280;25451;51.960;6.250;2024-01-15T00:36:30;100047.03;;;2.97;82.88
39773;BME280;25451;51.960;6.250;2024-01-15T00:38:56;100041.19;;;2.94;82.99
39773;BME280;25451;51.960;6.250;2024-01-15T00:41:21;100040.56;;;2.92;82.89
39773;BME280;25451;51.960;6.250;2024-01-15T00:43:46;100044.75;;;2.88;82.85
39773;BME280;25451;51.960;6.250;2024-01-15T00:46:14;100041.41;;;2.86;82.87
39773;BME280;25451;51.960;6.250;2024-01-15T00:48:39;100035.56;;;2.82;82.87
39773;BME280;25451;51.960;6.250;2024-01-15T00:51:04;100030.53;;;2.79;83.10
39773;BME280;25451;51.960;6.250;2024-01-15T00:53:30;100032.00;;;2.75;82.71
39773;BME280;25451;51.960;6.250;2024-01-15T00:55:55;100028.03;;;2.71;82.93
39773;BME280;25451;51.960;6.250;2024-01-15T00:58:20;100025.53;;;2.70;82.81
39773;BME280;25451;51.960;6.250;2024-01-15T01:00:46;100026.78;;;2.67;82.98
39773;BME280;25451;51.960;6.250;2024-01-15T01:03:11;100016.31;;;2.64;82.84
39773;BME280;25451;51.960;6.250;2024-01-15T01:05:36;100004.19;;;2.60;83.12
39773;BME280;25451;51.960;6.250;2024-01-15T01:08:02;100007.94;;;2.59;82.74
39773;BME280;25451;51.960;6.250;2024-01-15T01:10:28;100010.03;;;2.57;83.03
39773;BME280;25451;51.960;6.250;2024-01-15T01:12:53;100011.13;;;2.56;83.00
39773;BME280;25451;51.960;6.250;2024-01-15T01:15:18;100004.41;;;2.52;82.79
39773;BME280;25451;51.960;6.250;2024-01-15T01:17:44;100003.97;;;2.48;82.97
39773;BME280;25451;51.960;6.250;2024-01-15T01:20:09;99989.97;;;2.45;83.21
39773;BME280;25451;51.960;6.250;2024-01-15T01:22:35;99999.19;;;2.44;82.81
39773;BME280;25451;51.960;6.250;2024-01-15T01:25:01;99990.59;;;2.40;82.95
39773;BME280;25451;51.960;6.250;2024-01-15T01:27:26;99989.97;;;2.38;83.09
39773;BME280;25451;51.960;6.250;2024-01-15T01:29:52;99992.91;;;2.37;83.04
39773;BME280;25451;51.960;6.250;2024-01-15T01:32:18;99985.19;;;2.34;82.98
39773;BME280;25451;51.960;6.250;2024-01-15T01:34:43;99990.81;;;2.32;83.05
39773;BME280;25451;51.960;6.250;2024-01-15T01:37:09;99984.34;;;2.27;82.89
39773;BME280;25451;51.960;6.250;2024-01-15T01:39:34;99985.41;;;2.26;82.54
39773;BME280;25451;51.960;6.250;2024-01-15T01:42:00;99988.31;;;2.24;83.25
39773;BME280;25451;51.960;6.250;2024-01-15T01:44:25;99989.59;;;2.22;82.91
39773;BME280;25451;51.960;6.250;2024-01-15T01:46:50;99990.00;;;2.19;82.86
39773;BME280;25451;51.960;6.250;2024-01-15T01:49:16;99991.25;;;2.16;82.89
39773;BME280;25451;51.960;6.250;2024-01-15T01:51:42;99996.28;;;2.13;82.86
39773;BME280;25451;51.960;6.250;2024-01-15T01:54:08;99997.56;;;2.17;83.00
39773;BME280;25451;51.960;6.250;2024-01-15T01:56:34;100002.38;;;2.15;83.33
39773;BME280;25451;51.960;6.250;2024-01-15T01:59:01;100008.03;;;2.13;83.29
39773;BME280;25451;51.960;6.250;2024-01-15T02:01:27;100006.34;;;2.12;82.79
39773;BME280;25451;51.960;6.250;2024-01-15T02:03:52;100009.28;;;2.11;83.01
39773;BME280;25451;51.960;6.250;2024-01-15T02:06:18;100020.38;;;2.09;82.87
39773;BME280;25451;51.960;6.250;2024-01-15T02:08:43;100006.34;;;2.06;82.83
39773;BME280;25451;51.960;6.250;2024-01-15T02:11:09;100004.06;;;2.03;82.78
39773;BME280;25451;51.960;6.250;2024-01-15T02:13:34;100001.09;;;2.04;82.93
39773;BME280;25451;51.960;6.250;2024-01-15T02:15:59;99998.59;;;2.03;82.69
39773;BME280;25451;51.960;6.250;2024-01-15T02:18:25;99994.41;;;2.00;83.06
39773;BME280;25451;51.960;6.250;2024-01-15T02:20:50;99995.66;;;1.98;83.18
39773;BME280;25451;51.960;6.250;2024-01-15T02:23:15;99991.28;;;1.97;82.95
39773;BME280;25451;51.960;6.250;2024-01-15T02:25:45;99998.38;;;1.98;82.84
39773;BME280;25451;51.960;6.250;2024-01-15T02:28:16;99996.72;;;1.97;83.01
39773;BME280;25451;51.960;6.250;2024-01-15T02:30:42;99995.03;;;1.96;83.36
39773;BME280;25451;51.960;6.250;2024-01-15T02:33:09;99995.25;;;1.94;82.87
39773;BME280;25451;51.960;6.250;2024-01-15T02:35:35;99998.19;;;1.93;82.80
39773;BME280;25451;51.960;6.250;2024-01-15T02:38:05;99994.63;;;1.92;82.88
39773;BME280;25451;51.960;6.250;2024-01-15T02:40:31;99986.69;;;1.91;83.05
39773;BME280;25451;51.960;6.250;2024-01-15T02:42:56;99992.53;;;1.88;83.02
39773;BME280;25451;51.960;6.250;2024-01-15T02:45:23;99988.78;;;1.89;82.65
39773;BME280;25451;51.960;6.250;2024-01-15T02:47:48;99990.03;;;1.86;82.95
39773;BME280;25451;51.960;6.250;2024-01-15T02:50:14;99980.59;;;1.82;82.80
39773;BME280;25451;51.960;6.250;2024-01-15T02:52:39;99995.06;;;1.83;82.97
39773;BME280;25451;51.960;6.250;2024-01-15T02:55:05;99995.91;;;1.83;83.00
39773;BME280;25451;51.960;6.250;2024-01-15T02:57:31;100001.75;;;1.80;82.84
39773;BME280;25451;51.960;6.250;2024-01-15T02:59:56;99999.88;;;1.81;82.73
39773;BME280;25451;51.960;6.250;2024-01-15T03:02:22;100001.94;;;1.79;83.02
39773;BME280;25451;51.960;6.250;2024-01-15T03:04:47;100003.19;;;1.76;82.99
39773;BME280;25451;51.960;6.250;2024-01-15T03:07:12;99999.00;;;1.74;82.95
39773;BME280;25451;51.960;6.250;2024-01-15T03:09:38;100014.28;;;1.75;82.35
39773;BME280;25451;51.960;6.250;2024-01-15T03:12:04;100015.53;;;1.72;82.72
39773;BME280;25451;51.960;6.250;2024-01-15T03:14:29;100015.31;;;1.74;82.76
39773;BME280;25451;51.960;6.250;2024-01-15T03:16:55;100001.94;;;1.72;82.50
39773;BME280;25451;51.960;6.250;2024-01-15T03:19:20;100000.25;;;1.71;82.82
39773;BME280;25451;51.960;6.250;2024-01-15T03:21:45;100002.16;;;1.71;82.75
39773;BME280;25451;51.960;6.250;2024-01-15T03:24:10;99987.72;;;1.70;83.08
39773;BME280;25451;51.960;6.250;2024-01-15T03:26:36;99999.44;;;1.71;82.70
39773;BME280;25451;51.960;6.250;2024-01-15T03:29:01;99996.72;;;1.71;83.00
39773;BME280;25451;51.960;6.250;2024-01-15T03:31:27;99995.03;;;1.69;82.63
39773;BME280;25451;51.960;6.250;2024-01-15T03:33:52;99992.75;;;1.66;83.04
39773;BME280;25451;51.960;6.250;2024-01-15T03:36:17;99992.75;;;1.66;82.70
39773;BME280;25451;51.960;6.250;2024-01-15T03:38:42;99992.53;;;1.68;82.76
39773;BME280;25451;51.960;6.250;2024-01-15T03:41:08;99991.69;;;1.67;82.74
39773;BME280;25451;51.960;6.250;2024-01-15T03:43:33;99984.97;;;1.63;83.01
39773;BME280;25451;51.960;6.250;2024-01-15T03:45:58;100001.72;;;1.67;82.66
39773;BME280;25451;51.960;6.250;2024-01-15T03:48:24;99991.25;;;1.64;82.54
39773;BME280;25451;51.960;6.250;2024-01-15T03:50:49;99982.03;;;1.65;82.83
39773;BME280;25451;51.960;6.250;2024-01-15T03:53:15;99985.81;;;1.64;82.52
39773;BME280;25451;51.960;6.250;2024-01-15T03:55:40;99986.66;;;1.64;82.52
39773;BME280;25451;51.960;6.250;2024-01-15T03:58:05;99980.16;;;1.65;82.51
39773;BME280;25451;51.960;6.250;2024-01-15T04:00:31;99983.94;;;1.64;82.62
39773;BME280;25451;51.960;6.250;2024-01-15T04:02:56;99978.28;;;1.66;82.87
39773;BME280;25451;51.960;6.250;2024-01-15T04:05:21;99979.16;;;1.66;82.65
39773;BME280;25451;51.960;6.250;2024-01-15T04:07:46;99965.72;;;1.65;82.70
39773;BME280;25451;51.960;6.250;2024-01-15T04:10:12;99968.66;;;1.63;82.69
39773;BME280;25451;51.960;6.250;2024-01-15T04:12:37;99963.00;;;1.65;82.75
39773;BME280;25451;51.960;6.250;2024-01-15T04:15:03;99959.47;;;1.64;82.62
39773;BME280;25451;51.960;6.250;2024-01-15T04:17:28;99960.50;;;1.63;82.59
39773;BME280;25451;51.960;6.250;2024-01-15T04:19:54;99963.22;;;1.63;82.66
39773;BME280;25451;51.960;6.250;2024-01-15T04:22:19;99957.78;;;1.63;82.96
39773;BME280;25451;51.960;6.250;2024-01-15T04:24:44;99958.63;;;1.64;82.66
39773;BME280;25451;51.960;6.250;2024-01-15T04:27:10;99947.75;;;1.64;82.83
39773;BME280;25451;51.960;6.250;2024-01-15T04:29:37;99950.88;;;1.67;82.83
39773;BME280;25451;51.960;6.250;2024-01-15T04:32:04;99949.41;;;1.65;82.93
39773;BME280;25451;51.960;6.250;2024-01-15T04:34:29;99949.84;;;1.68;82.71
39773;BME280;25451;51.960;6.250;2024-01-15T04:36:54;99953.38;;;1.69;82.67
39773;BME280;25451;51.960;6.250;2024-01-15T04:39:20;99953.19;;;1.71;82.75
39773;BME280;25451;51.960;6.250;2024-01-15T04:41:45;99964.09;;;1.71;82.41
39773;BME280;25451;51.960;6.250;2024-01-15T04:44:10;99954.84;;;1.72;82.78
39773;BME280;25451;51.960;6.250;2024-01-15T04:46:36;99939.59;;;1.71;82.54
39773;BME280;25451;51.960;6.250;2024-01-15T04:49:01;99945.22;;;1.76;82.71
39773;BME280;25451;51.960;6.250;2024-01-15T04:51:26;99937.91;;;1.76;82.36
39773;BME280;25451;51.960;6.250;2024-01-15T04:53:51;99932.25;;;1.78;82.54
39773;BME280;25451;51.960;6.250;2024-01-15T04:56:17;99930.59;;;1.77;82.72
39773;BME280;25451;51.960;6.250;2024-01-15T04:58:42;99933.94;;;1.79;82.48
39773;BME280;25451;51.960;6.250;2024-01-15T05:01:08;99933.94;;;1.79;82.55
39773;BME280;25451;51.960;6.250;2024-01-15T05:03:33;99940.41;;;1.78;82.51
39773;BME280;25451;51.960;6.250;2024-01-15T05:05:58;99936.66;;;1.79;82.78
39773;BME280;25451;51.960;6.250;2024-01-15T05:08:24;99939.41;;;1.79;82.44
39773;BME280;25451;51.960;6.250;2024-01-15T05:10:49;99928.91;;;1.76;82.28
39773;BME280;25451;51.960;6.250;2024-01-15T05:13:14;99926.19;;;1.76;82.84
39773;BME280;25451;51.960;6.250;2024-01-15T05:15:40;99924.31;;;1.76;82.76
39773;BME280;25451;51.960;6.250;2024-01-15T05:18:05;99931.44;;;1.77;82.37
39773;BME280;25451;51.960;6.250;2024-01-15T05:20:31;99926.00;;;1.77;82.77
39773;BME280;25451;51.960;6.250;2024-01-15T05:22:56;99924.31;;;1.76;82.52
39773;BME280;25451;51.960;6.250;2024-01-15T05:25:22;99915.53;;;1.74;82.51
39773;BME280;25451;51.960;6.250;2024-01-15T05:27:47;99910.09;;;1.74;82.25
39773;BME280;25451;51.960;6.250;2024-01-15T05:30:13;99913.66;;;1.75;82.82
39773;BME280;25451;51.960;6.250;2024-01-15T05:32:39;99909.25;;;1.74;82.62
39773;BME280;25451;51.960;6.250;2024-01-15T05:35:04;99916.59;;;1.73;82.41
39773;BME280;25451;51.960;6.250;2024-01-15T05:37:30;99913.03;;;1.73;82.50
39773;BME280;25451;51.960;6.250;2024-01-15T05:39:55;99913.22;;;1.71;82.71
39773;BME280;25451;51.960;6.250;2024-01-15T05:42:20;99911.16;;;1.73;82.66
39773;BME280;25451;51.960;6.250;2024-01-15T05:44:46;99903.19;;;1.72;82.67
39773;BME280;25451;51.960;6.250;2024-01-15T05:47:11;99909.69;;;1.71;82.64
39773;BME280;25451;51.960;6.250;2024-01-15T05:49:36;99915.13;;;1.71;82.36
39773;BME280;25451;51.960;6.250;2024-01-15T05:52:02;99921.38;;;1.71;82.96
39773;BME280;25451;51.960;6.250;2024-01-15T05:54:27;99914.91;;;1.72;82.99
39773;BME280;25451;51.960;6.250;2024-01-15T05:56:52;99910.09;;;1.74;82.91
39773;BME280;25451;51.960;6.250;2024-01-15T05:59:18;99899.22;;;1.74;82.88
39773;BME280;25451;51.960;6.250;2024-01-15T06:01:43;99905.28;;;1.76;82.87
39773;BME280;25451;51.960;6.250;2024-01-15T06:04:08;99918.25;;;1.81;82.52
39773;BME280;25451;51.960;6.250;2024-01-15T06:06:33;99905.91;;;1.78;82.54
39773;BME280;25451;51.960;6.250;2024-01-15T06:08:59;99908.41;;;1.80;82.74
39773;BME280;25451;51.960;6.250;2024-01-15T06:11:33;99915.94;;;1.84;82.89
39773;BME280;25451;51.960;6.250;2024-01-15T06:13:59;99905.91;;;1.85;82.85
39773;BME280;25451;51.960;6.250;2024-01-15T06:16:28;99904.84;;;1.86;82.54
39773;BME280;25451;51.960;6.250;2024-01-15T06:18:53;99900.47;;;1.85;82.81
39773;BME280;25451;51.960;6.250;2024-01-15T06:21:19;99896.28;;;1.89;82.87
39773;BME280;25451;51.960;6.250;2024-01-15T07:07:25;99905.47;;;2.01;82.46
39773;BME280;25451;51.960;6.250;2024-01-15T07:09:54;99911.09;;;2.06;82.31
39773;BME280;25451;51.960;6.250;2024-01-15T07:12:19;99901.88;;;2.07;82.62
39773;BME280;25451;51.960;6.250;2024-01-15T07:14:44;99904.63;;;2.07;82.19
39773;BME280;25451;51.960;6.250;2024-01-15T07:17:10;99911.53;;;2.09;82.26
39773;BME280;25451;51.960;6.250;2024-01-15T07:19:35;99906.88;;;2.10;82.74
39773;BME280;25451;51.960;6.250;2024-01-15T07:22:01;99913.19;;;2.10;82.67
39773;BME280;25451;51.960;6.250;2024-01-15T07:24:27;99913.81;;;2.12;82.41
39773;BME280;25451;51.960;6.250;2024-01-15T07:26:52;99912.34;;;2.10;82.52
39773;BME280;25451;51.960;6.250;2024-01-15T07:29:17;99908.59;;;2.11;82.33
39773;BME280;25451;51.960;6.250;2024-01-15T07:31:51;99904.59;;;2.13;82.72
39773;BME280;25451;51.960;6.250;2024-01-15T07:34:17;99898.72;;;2.10;82.63
39773;BME280;25451;51.960;6.250;2024-01-15T07:36:46;99910.03;;;2.13;82.50
39773;BME280;25451;51.960;6.250;2024-01-15T07:39:11;99909.81;;;2.15;82.67
39773;BME280;25451;51.960;6.250;2024-01-15T07:41:37;99910.03;;;2.13;82.79
39773;BME280;25451;51.960;6.250;2024-01-15T07:44:02;99914.66;;;2.13;82.42
39773;BME280;25451;51.960;6.250;2024-01-15T07:46:28;99901.03;;;2.13;82.55
39773;BME280;25451;51.960;6.250;2024-01-15T07:48:53;99918.63;;;2.17;82.61
39773;BME280;25451;51.960;6.250;2024-01-15T07:51:24;99908.78;;;2.16;82.75
39773;BME280;25451;51.960;6.250;2024-01-15T07:53:52;99916.13;;;2.15;82.68
39773;BME280;25451;51.960;6.250;2024-01-15T07:56:18;99910.03;;;2.13;82.39
39773;BME280;25451;51.960;6.250;2024-01-15T07:58:43;99915.06;;;2.16;82.44
39773;BME280;25451;51.960;6.250;2024-01-15T08:01:09;99913.41;;;2.15;82.55
39773;BME280;25451;51.960;6.250;2024-01-15T08:03:34;99921.34;;;2.17;82.76
39773;BME280;25451;51.960;6.250;2024-01-15T08:05:59;99926.78;;;2.17;82.70
39773;BME280;25451;51.960;6.250;2024-01-15T08:08:25;99927.63;;;2.17;82.95
39773;BME280;25451;51.960;6.250;2024-01-15T08:10:53;99921.56;;;2.15;82.60
39773;BME280;25451;51.960;6.250;2024-01-15T08:13:19;99918.84;;;2.15;82.61
39773;BME280;25451;51.960;6.250;2024-01-15T08:15:45;99925.53;;;2.19;82.72
39773;BME280;25451;51.960;6.250;2024-01-15T08:18:10;99915.66;;;2.18;82.54
39773;BME280;25451;51.960;6.250;2024-01-15T08:20:35;99909.41;;;2.18;82.94
39773;BME280;25451;51.960;6.250;2024-01-15T08:23:01;99898.09;;;2.21;82.75
39773;BME280;25451;51.960;6.250;2024-01-15T08:25:26;99906.47;;;2.19;82.59
39773;BME280;25451;51.960;6.250;2024-01-15T08:27:52;99915.47;;;2.20;82.68
39773;BME280;25451;51.960;6.250;2024-01-15T08:30:17;99916.91;;;2.22;82.84
39773;BME280;25451;51.960;6.250;2024-01-15T08:32:44;99921.34;;;2.23;82.92
39773;BME280;25451;51.960;6.250;2024-01-15T08:35:10;99920.47;;;2.23;82.72
39773;BME280;25451;51.960;6.250;2024-01-15T08:37:36;99931.16;;;2.24;82.64
39773;BME280;25451;51.960;6.250;2024-01-15T08:40:02;99929.91;;;2.27;82.64
39773;BME280;25451;51.960;6.250;2024-01-15T08:42:28;99916.28;;;2.27;82.87
39773;BME280;25451;51.960;6.250;2024-01-15T08:44:53;99921.72;;;2.27;82.74
39773;BME280;25451;51.960;6.250;2024-01-15T08:47:19;99921.72;;;2.27;82.81
39773;BME280;25451;51.960;6.250;2024-01-15T08:49:44;99914.63;;;2.26;82.60
39773;BME280;25451;51.960;6.250;2024-01-15T08:52:10;99916.91;;;2.29;82.91
39773;BME280;25451;51.960;6.250;2024-01-15T08:54:35;99912.53;;;2.28;82.72
39773;BME280;25451;51.960;6.250;2024-01-15T08:57:01;99903.31;;;2.29;83.07
39773;BME280;25451;51.960;6.250;2024-01-15T08:59:26;99906.66;;;2.31;83.00
39773;BME280;25451;51.960;6.250;2024-01-15T09:01:52;99917.13;;;2.34;82.69
39773;BME280;25451;51.960;6.250;2024-01-15T09:04:18;99917.94;;;2.34;82.88
39773;BME280;25451;51.960;6.250;2024-01-15T09:06:45;99925.06;;;2.35;82.87
39773;BME280;25451;51.960;6.250;2024-01-15T09:09:12;99925.28;;;2.34;82.54
39773;BME280;25451;51.960;6.250;2024-01-15T09:11:37;99931.34;;;2.36;82.82
39773;BME280;25451;51.960;6.250;2024-01-15T09:14:03;99927.56;;;2.37;82.79
39773;BME280;25451;51.960;6.250;2024-01-15T09:16:28;99937.63;;;2.36;83.00
39773;BME280;25451;51.960;6.250;2024-01-15T09:18:54;99926.31;;;2.33;82.88
39773;BME280;25451;51.960;6.250;2024-01-15T09:21:22;99942.03;;;2.37;82.70
39773;BME280;25451;51.960;6.250;2024-01-15T09:23:47;99946.41;;;2.38;82.38
39773;BME280;25451;51.960;6.250;2024-01-15T09:26:12;99939.53;;;2.36;82.70
39773;BME280;25451;51.960;6.250;2024-01-15T09:28:37;99926.31;;;2.39;82.85
39773;BME280;25451;51.960;6.250;2024-01-15T09:31:03;99924.44;;;2.40;82.75
39773;BME280;25451;51.960;6.250;2024-01-15T09:33:28;99933.22;;;2.42;82.77
39773;BME280;25451;51.960;6.250;2024-01-15T09:35:53;99930.50;;;2.42;82.92
39773;BME280;25451;51.960;6.250;2024-01-15T09:38:19;99924.00;;;2.43;82.77
39773;BME280;25451;51.960;6.250;2024-01-15T09:40:45;99922.94;;;2.44;82.97
39773;BME280;25451;51.960;6.250;2024-01-15T09:43:12;99918.75;;;2.48;82.80
39773;BME280;25451;51.960;6.250;2024-01-15T09:45:38;99918.31;;;2.51;82.70
39773;BME280;25451;51.960;6.250;2024-01-15T09:48:03;99933.59;;;2.52;82.79
39773;BME280;25451;51.960;6.250;2024-01-15T09:50:29;99917.03;;;2.53;82.81
39773;BME280;25451;51.960;6.250;2024-01-15T09:52:55;99925.63;;;2.57;82.80
39773;BME280;25451;51.960;6.250;2024-01-15T09:55:22;99931.06;;;2.57;82.91
39773;BME280;25451;51.960;6.250;2024-01-15T09:57:49;99934.00;;;2.62;82.71
39773;BME280;25451;51.960;6.250;2024-01-15T10:00:17;99922.47;;;2.60;82.57
39773;BME280;25451;51.960;6.250;2024-01-15T10:02:43;99945.69;;;2.69;82.30
39773;BME280;25451;51.960;6.250;2024-01-15T10:05:09;99938.34;;;2.70;82.80
39773;BME280;25451;51.960;6.250;2024-01-15T10:07:35;99941.69;;;2.72;82.65
39773;BME280;25451;51.960;6.250;2024-01-15T10:10:02;99945.44;;;2.77;83.02
39773;BME280;25451;51.960;6.250;2024-01-15T10:12:28;99952.97;;;2.82;82.51
39773;BME280;25451;51.960;6.250;2024-01-15T10:14:54;99949.59;;;2.86;82.92
39773;BME280;25451;51.960;6.250;2024-01-15T10:17:19;99942.66;;;2.90;82.51
39773;BME280;25451;51.960;6.250;2024-01-15T10:19:47;99934.03;;;2.93;82.55
39773;BME280;25451;51.960;6.250;2024-01-15T10:22:14;99928.19;;;2.96;82.55
39773;BME280;25451;51.960;6.250;2024-01-15T10:24:41;99930.44;;;2.99;82.64
39773;BME280;25451;51.960;6.250;2024-01-15T10:27:10;99914.75;;;3.01;82.82
39773;BME280;25451;51.960;6.250;2024-01-15T10:29:36;99927.69;;;3.06;82.55
39773;BME280;25451;51.960;6.250;2024-01-15T10:32:08;99922.66;;;3.09;82.59
39773;BME280;25451;51.960;6.250;2024-01-15T10:34:40;99919.47;;;3.12;82.68
39773;BME280;25451;51.960;6.250;2024-01-15T10:37:09;99923.06;;;3.13;82.59
39773;BME280;25451;51.960;6.250;2024-01-15T10:39:35;99928.91;;;3.16;82.85
39773;BME280;25451;51.960;6.250;2024-01-15T10:42:01;99931.84;;;3.15;82.35
39773;BME280;25451;51.960;6.250;2024-01-15T10:44:29;99922.19;;;3.19;82.58
39773;BME280;25451;51.960;6.250;2024-01-15T10:46:55;99930.75;;;3.22;82.77
39773;BME280;25451;51.960;6.250;2024-01-15T10:49:21;99922.78;;;3.21;82.85
39773;BME280;25451;51.960;6.250;2024-01-15T10:51:50;99927.78;;;3.24;82.74
39773;BME280;25451;51.960;6.250;2024-01-15T10:54:16;99921.53;;;3.23;82.76
39773;BME280;25451;51.960;6.250;2024-01-15T10:56:42;99926.53;;;3.26;82.68
39773;BME280;25451;51.960;6.250;2024-01-15T10:59:09;99931.56;;;3.29;83.03
39773;BME280;25451;51.960;6.250;2024-01-15T11:01:36;99931.94;;;3.33;83.11
39773;BME280;25451;51.960;6.250;2024-01-15T11:04:01;99929.00;;;3.34;82.77
39773;BME280;25451;51.960;6.250;2024-01-15T11:06:27;99922.03;;;3.38;82.97
39773;BME280;25451;51.960;6.250;2024-01-15T11:08:54;99924.16;;;3.36;82.92
39773;BME280;25451;51.960;6.250;2024-01-15T11:11:21;99927.88;;;3.42;83.27
39773;BME280;25451;51.960;6.250;2024-01-15T11:13:46;99926.63;;;3.45;83.00
39773;BME280;25451;51.960;6.250;2024-01-15T11:16:14;99919.50;;;3.44;82.81
39773;BME280;25451;51.960;6.250;2024-01-15T11:21:22;99934.53;;;3.53;83.13
39773;BME280;25451;51.960;6.250;2024-01-15T11:23:58;99930.28;;;3.57;82.98
39773;BME280;25451;51.960;6.250;2024-01-15T11:26:37;99932.00;;;3.58;82.92
39773;BME280;25451;51.960;6.250;2024-01-15T11:29:07;99921.69;;;3.60;82.91
39773;BME280;25451;51.960;6.250;2024-01-15T11:34:07;99927.16;;;3.60;82.86
39773;BME280;25451;51.960;6.250;2024-01-15T11:39:39;99935.31;;;3.60;83.06
39773;BME280;25451;51.960;6.250;2024-01-15T11:42:04;99930.72;;;3.60;82.66
39773;BME280;25451;51.960;6.250;2024-01-15T11:44:30;99927.75;;;3.62;83.07
39773;BME280;25451;51.960;6.250;2024-01-15T11:47:00;99932.97;;;3.63;83.25
39773;BME280;25451;51.960;6.250;2024-01-15T11:52:03;99934.88;;;3.63;82.83
39773;BME280;25451;51.960;6.250;2024-01-15T11:54:32;99915.16;;;3.61;82.93
39773;BME280;25451;51.960;6.250;2024-01-15T11:57:04;99935.06;;;3.68;83.10
39773;BME280;25451;51.960;6.250;2024-01-15T11:59:32;99928.97;;;3.66;83.39
39773;BME280;25451;51.960;6.250;2024-01-15T12:01:57;99931.25;;;3.69;83.11
39773;BME280;25451;51.960;6.250;2024-01-15T12:04:23;99933.78;;;3.70;83.12
39773;BME280;25451;51.960;6.250;2024-01-15T12:06:49;99938.56;;;3.75;82.97
39773;BME280;25451;51.960;6.250;2024-01-15T12:09:14;99938.56;;;3.75;83.18
39773;BME280;25451;51.960;6.250;2024-01-15T12:11:43;99938.13;;;3.78;82.83
39773;BME280;25451;51.960;6.250;2024-01-15T12:14:12;99937.47;;;3.82;83.38
39773;BME280;25451;51.960;6.250;2024-01-15T12:16:38;99937.00;;;3.85;82.83
39773;BME280;25451;51.960;6.250;2024-01-15T12:19:03;99938.03;;;3.91;83.02
39773;BME280;25451;51.960;6.250;2024-01-15T12:21:28;99941.38;;;3.93;82.84
39773;BME280;25451;51.960;6.250;2024-01-15T12:23:55;99940.06;;;3.95;82.92
39773;BME280;25451;51.960;6.250;2024-01-15T12:26:21;99944.84;;;4.00;83.02
39773;BME280;25451;51.960;6.250;2024-01-15T12:28:46;99949.28;;;4.01;83.01
39773;BME280;25451;51.960;6.250;2024-01-15T12:31:12;99949.66;;;4.04;83.17
39773;BME280;25451;51.960;6.250;2024-01-15T12:33:38;99953.59;;;4.08;83.12
39773;BME280;25451;51.960;6.250;2024-01-15T12:36:04;99960.53;;;4.11;82.94
39773;BME280;25451;51.960;6.250;2024-01-15T12:38:29;99965.50;;;4.14;83.00
39773;BME280;25451;51.960;6.250;2024-01-15T12:40:54;99968.41;;;4.19;83.08
39773;BME280;25451;51.960;6.250;2024-01-15T12:43:20;99968.41;;;4.19;82.98
39773;BME280;25451;51.960;6.250;2024-01-15T12:45:45;99982.22;;;4.24;82.90
39773;BME280;25451;51.960;6.250;2024-01-15T12:48:10;99980.09;;;4.26;82.81
39773;BME280;25451;51.960;6.250;2024-01-15T12:50:36;99979.25;;;4.26;82.82
39773;BME280;25451;51.960;6.250;2024-01-15T12:53:02;99985.56;;;4.26;83.11
39773;BME280;25451;51.960;6.250;2024-01-15T12:55:27;99994.84;;;4.25;82.74
39773;BME280;25451;51.960;6.250;2024-01-15T12:57:53;99995.88;;;4.24;83.08
39773;BME280;25451;51.960;6.250;2024-01-15T13:00:20;99988.16;;;4.21;82.88
39773;BME280;25451;51.960;6.250;2024-01-15T13:02:45;99984.56;;;4.20;82.95
39773;BME280;25451;51.960;6.250;2024-01-15T13:05:11;99979.53;;;4.17;82.98
39773;BME280;25451;51.960;6.250;2024-01-15T13:07:37;99986.31;;;4.15;82.85
39773;BME280;25451;51.960;6.250;2024-01-15T13:10:03;99991.97;;;4.13;83.14
39773;BME280;25451;51.960;6.250;2024-01-15T13:12:29;99990.31;;;4.12;83.19
39773;BME280;25451;51.960;6.250;2024-01-15T13:14:54;99987.81;;;4.11;83.41
39773;BME280;25451;51.960;6.250;2024-01-15T13:17:19;99994.09;;;4.11;83.31
39773;BME280;25451;51.960;6.250;2024-01-15T13:19:46;99991.59;;;4.10;83.10
39773;BME280;25451;51.960;6.250;2024-01-15T13:22:11;99989.94;;;4.09;83.07
39773;BME280;25451;51.960;6.250;2024-01-15T13:24:39;99992.06;;;4.07;83.10
39773;BME280;25451;51.960;6.250;2024-01-15T13:27:04;99983.44;;;4.03;83.26
39773;BME280;25451;51.960;6.250;2024-01-15T13:29:31;99985.38;;;4.03;83.28
39773;BME280;25451;51.960;6.250;2024-01-15T13:31:57;99994.59;;;4.02;83.28
39773;BME280;25451;51.960;6.250;2024-01-15T13:34:22;99990.41;;;3.99;82.97
39773;BME280;25451;51.960;6.250;2024-01-15T13:36:47;99998.84;;;3.98;82.87
39773;BME280;25451;51.960;6.250;2024-01-15T13:39:13;99997.59;;;3.94;83.26
39773;BME280;25451;51.960;6.250;2024-01-15T13:41:38;99989.28;;;3.89;83.17
39773;BME280;25451;51.960;6.250;2024-01-15T13:44:04;99999.97;;;3.90;83.00
39773;BME280;25451;51.960;6.250;2024-01-15T13:46:29;99999.56;;;3.87;83.07
39773;BME280;25451;51.960;6.250;2024-01-15T13:48:55;99997.66;;;3.87;83.20
39773;BME280;25451;51.960;6.250;2024-01-15T13:51:23;99999.78;;;3.85;83.37
39773;BME280;25451;51.960;6.250;2024-01-15T13:53:49;99994.97;;;3.81;83.21
39773;BME280;25451;51.960;6.250;2024-01-15T13:56:15;99997.28;;;3.84;83.44